Decoded Metar for KPBH (PHILLIPS/PRICE in WI, USA) (IATA:PBH) | Meteo·Mobile Aviation Weather
aviador You're here:

KPBH Decoded Metar

PHILLIPS/PRICE in WI, USA
Report Time2018-08-14 10:55:00
UTC Time2018-08-14 10:57:02
Flight Rules vfr VFR
WindCalm
Visibility9999 m
Phenomena:N/A
Clouds:N/A
CeilingNone
Temp17°C (ISA +5)
Dew Point17°C (100% RH)
QNH1015 hPa
Density Alt2,247 ft
Elevation1,473 ft
Report Wrong Elevation
Raw Report
KPBH 141055Z AUTO 00000KT 10SM CLR 17/17 A2997 RMK AO2
T01740172=

Extra information for KPBH:More info

Metar Taf Metar & Taf Last 4 Metars F.Rules Stats Wind Profile Meteogram Temp Stats Airport Information Weather charts Add Link Nearby VenuesMetar ALERT Operation Metar Decoded Social comments

AIRNAV info for KPBH